createdAt,value
2018-11-07T00:03:07.854Z,68.03
2018-11-07T00:07:11.459Z,68.01
2018-11-07T00:11:15.262Z,68.18
2018-11-07T00:15:18.925Z,68.47
2018-11-07T00:19:22.601Z,68.79
2018-11-07T00:23:26.433Z,68.08
2018-11-07T00:27:29.982Z,68.71
2018-11-07T00:31:33.587Z,68.40
2018-11-07T00:35:37.177Z,68.26
2018-11-07T00:39:40.785Z,68.85
2018-11-07T00:43:44.504Z,68.46
2018-11-07T00:47:48.246Z,68.26
2018-11-07T00:51:51.948Z,68.26
2018-11-07T00:55:55.742Z,68.36
2018-11-07T00:59:59.434Z,68.94
2018-11-07T01:04:03.330Z,68.96
2018-11-07T01:08:07.075Z,69.41
2018-11-07T01:12:10.840Z,69.17
2018-11-07T01:16:14.618Z,69.09
2018-11-07T01:20:18.397Z,68.64
2018-11-07T01:24:22.169Z,69.50
2018-11-07T01:28:26.046Z,69.54
2018-11-07T01:32:29.712Z,69.16
2018-11-07T01:36:33.427Z,69.67
2018-11-07T01:40:37.065Z,69.29
2018-11-07T01:44:40.744Z,69.28
2018-11-07T01:48:44.401Z,70.33
2018-11-07T01:52:48.056Z,69.61
2018-11-07T01:56:51.742Z,69.29
2018-11-07T02:00:55.360Z,69.49
2018-11-07T02:04:59.071Z,70.02
2018-11-07T02:09:02.926Z,69.73
2018-11-07T02:13:06.611Z,70.54
2018-11-07T02:17:10.327Z,69.75
2018-11-07T02:21:14.004Z,70.13
2018-11-07T02:25:17.642Z,70.14
2018-11-07T02:29:21.249Z,69.65
2018-11-07T02:33:25.309Z,69.72
2018-11-07T02:37:29.126Z,70.82
2018-11-07T02:41:32.880Z,69.82
2018-11-07T02:45:36.665Z,70.51
2018-11-07T02:49:40.414Z,70.49
2018-11-07T02:53:44.189Z,70.66
2018-11-07T02:57:48.020Z,70.31
2018-11-07T03:01:51.754Z,70.31
2018-11-07T03:05:55.538Z,70.63
2018-11-07T03:09:59.288Z,70.27
2018-11-07T03:14:04.896Z,70.70
2018-11-07T03:18:08.431Z,70.50
2018-11-07T03:22:12.018Z,70.80
2018-11-07T03:26:15.628Z,70.42
2018-11-07T03:30:19.163Z,70.79
2018-11-07T03:34:22.873Z,70.65
2018-11-07T03:38:26.621Z,71.16
2018-11-07T03:42:30.289Z,70.82
2018-11-07T03:46:33.934Z,71.04
2018-11-07T03:50:37.553Z,71.66
2018-11-07T03:54:41.182Z,71.18
2018-11-07T03:58:44.772Z,71.71
2018-11-07T04:02:48.411Z,70.88
2018-11-07T04:06:52.080Z,71.77
2018-11-07T04:10:55.721Z,71.74
2018-11-07T04:14:59.361Z,71.53
2018-11-07T04:19:02.933Z,72.22
2018-11-07T04:23:07.030Z,72.37
2018-11-07T04:27:10.700Z,71.76
2018-11-07T04:31:14.366Z,71.72
2018-11-07T04:35:18.079Z,71.61
2018-11-07T04:39:21.803Z,72.27
2018-11-07T04:43:25.452Z,71.63
2018-11-07T04:47:29.232Z,72.42
2018-11-07T04:51:32.929Z,72.56
2018-11-07T04:55:36.620Z,72.47
2018-11-07T04:59:40.350Z,72.28
2018-11-07T05:03:43.961Z,72.53
2018-11-07T05:07:47.617Z,72.81
2018-11-07T05:11:51.415Z,72.92
2018-11-07T05:15:55.510Z,73.09
2018-11-07T05:19:59.097Z,73.30
2018-11-07T05:24:03.041Z,72.41
2018-11-07T05:28:13.356Z,73.57
2018-11-07T05:32:17.324Z,73.26
2018-11-07T05:36:20.867Z,72.77
2018-11-07T05:40:25.432Z,73.29
2018-11-07T05:44:28.988Z,73.13
2018-11-07T05:48:33.781Z,73.38
2018-11-07T05:52:37.914Z,73.01
2018-11-07T05:56:41.794Z,73.06
2018-11-07T06:00:46.624Z,73.29
2018-11-07T06:04:50.481Z,73.15
2018-11-07T06:08:54.354Z,73.88
2018-11-07T06:12:58.225Z,73.88
2018-11-07T06:17:02.207Z,73.43
2018-11-07T06:21:06.092Z,74.03
2018-11-07T06:25:10.045Z,73.56
2018-11-07T06:29:13.978Z,74.34
2018-11-07T06:33:17.783Z,73.83
2018-11-07T06:37:21.607Z,73.72
2018-11-07T06:41:25.424Z,74.23
2018-11-07T06:45:29.291Z,73.88
2018-11-07T06:49:33.090Z,73.84
2018-11-07T06:53:36.955Z,74.01
2018-11-07T06:57:41.111Z,73.68
2018-11-07T07:01:45.014Z,74.16
2018-11-07T07:05:49.051Z,73.65
2018-11-07T07:09:52.876Z,73.65
2018-11-07T07:13:56.728Z,73.48
2018-11-07T07:18:00.607Z,73.58
2018-11-07T07:22:04.361Z,74.13
2018-11-07T07:26:08.141Z,73.54
2018-11-07T07:30:13.836Z,73.70
2018-11-07T07:34:17.645Z,73.48
2018-11-07T07:38:21.455Z,73.10
2018-11-07T07:42:25.465Z,73.90
2018-11-07T07:46:29.289Z,73.59
2018-11-07T07:50:33.671Z,73.47
2018-11-07T07:54:37.484Z,72.80
2018-11-07T07:58:41.306Z,73.19
2018-11-07T08:02:47.269Z,72.71
2018-11-07T08:06:51.145Z,72.70
2018-11-07T08:10:55.049Z,73.27
2018-11-07T08:14:58.978Z,73.06
2018-11-07T08:19:02.955Z,72.63
2018-11-07T08:23:06.792Z,72.71
2018-11-07T08:27:10.620Z,72.67
2018-11-07T08:31:14.468Z,72.71
2018-11-07T08:35:18.340Z,72.73
2018-11-07T08:39:23.086Z,72.64
2018-11-07T08:43:26.979Z,72.07
2018-11-07T08:47:31.007Z,71.97
2018-11-07T08:51:34.549Z,71.85
2018-11-07T08:55:38.161Z,71.53
2018-11-07T08:59:42.092Z,72.33
2018-11-07T09:03:45.945Z,71.93
2018-11-07T09:07:49.968Z,72.20
2018-11-07T09:11:53.954Z,72.14
2018-11-07T09:15:58.083Z,71.13
2018-11-07T09:20:02.023Z,70.88
2018-11-07T09:24:06.023Z,71.18
2018-11-07T09:28:10.056Z,70.73
2018-11-07T09:32:14.892Z,70.45
2018-11-07T09:36:18.822Z,71.09
2018-11-07T09:40:28.883Z,71.16
2018-11-07T09:44:33.067Z,70.36
2018-11-07T09:48:36.938Z,69.63
2018-11-07T09:52:41.260Z,69.85
2018-11-07T09:56:45.160Z,69.88
2018-11-07T10:00:49.095Z,69.44
2018-11-07T10:04:53.205Z,68.69
2018-11-07T10:08:57.221Z,68.43
2018-11-07T10:13:15.453Z,67.89
2018-11-07T10:21:56.960Z,67.57
2018-11-07T10:30:28.894Z,66.70
2018-11-07T10:34:48.261Z,66.22
2018-11-07T10:47:40.992Z,65.08
2018-11-07T10:56:25.957Z,65.45
2018-11-07T11:00:43.173Z,64.91
2018-11-07T15:13:13.037Z,64.31
2018-11-07T15:17:23.026Z,64.23
2018-11-07T15:21:30.298Z,64.36
2018-11-07T15:25:44.974Z,64.24
2018-11-07T15:29:51.614Z,64.60
2018-11-07T15:33:55.500Z,64.62
2018-11-07T15:37:59.856Z,64.76
2018-11-07T15:42:03.500Z,64.78
2018-11-07T15:46:07.099Z,64.96
2018-11-07T15:50:15.897Z,64.86
2018-11-07T15:54:19.486Z,65.14
2018-11-07T15:58:23.004Z,65.30
2018-11-07T16:02:26.509Z,65.31
2018-11-07T16:06:30.306Z,65.77
2018-11-07T16:10:35.837Z,65.65
2018-11-07T16:14:43.750Z,65.71
2018-11-07T16:18:48.050Z,65.80
2018-11-07T16:22:55.561Z,65.75
2018-11-07T16:27:01.802Z,66.15
2018-11-07T16:31:09.000Z,65.93
2018-11-07T16:35:13.803Z,66.22
2018-11-07T16:39:17.663Z,66.29
2018-11-07T16:47:39.804Z,66.56
2018-11-07T16:51:45.821Z,66.38
2018-11-07T16:55:51.978Z,66.59
2018-11-07T16:59:56.152Z,66.58
2018-11-07T17:04:00.126Z,66.83
2018-11-07T17:08:04.170Z,66.58
2018-11-07T17:12:08.738Z,66.86
2018-11-07T17:16:13.172Z,66.96
2018-11-07T17:20:17.520Z,66.82
2018-11-07T17:24:21.568Z,66.88
2018-11-07T17:28:25.959Z,66.91
2018-11-07T17:32:30.064Z,67.10
2018-11-07T17:36:34.179Z,67.29
2018-11-07T17:40:38.438Z,67.26
2018-11-07T17:44:42.635Z,67.68
2018-11-07T17:48:46.631Z,67.62
2018-11-07T17:52:50.966Z,67.85
2018-11-07T17:56:55.225Z,68.04
2018-11-07T18:01:00.999Z,67.83
2018-11-07T18:05:05.624Z,67.98
2018-11-07T18:09:10.162Z,68.37
2018-11-07T18:13:14.542Z,68.22
2018-11-07T18:17:18.461Z,68.05
2018-11-07T18:21:22.465Z,68.36
2018-11-07T18:25:27.034Z,68.44
2018-11-07T18:29:33.428Z,68.41
2018-11-07T18:33:40.409Z,68.25
2018-11-07T18:37:44.684Z,68.50
2018-11-07T18:41:49.234Z,68.59
2018-11-07T18:45:54.895Z,69.39
2018-11-07T18:50:00.739Z,69.23
2018-11-07T18:54:05.444Z,69.33
2018-11-07T18:58:09.455Z,69.38
2018-11-07T19:02:13.513Z,69.48
2018-11-07T19:06:17.608Z,69.91
2018-11-07T19:10:22.134Z,69.89
2018-11-07T19:14:27.351Z,69.33
2018-11-07T19:18:31.211Z,69.92
2018-11-07T19:22:35.105Z,69.82
2018-11-07T19:26:39.490Z,70.28
2018-11-07T19:30:44.566Z,69.85
2018-11-07T19:34:49.248Z,69.99
2018-11-07T19:38:55.900Z,70.08
2018-11-07T19:43:02.343Z,69.84
2018-11-07T19:47:29.525Z,69.72
2018-11-07T19:55:49.182Z,70.29
2018-11-07T19:59:55.179Z,69.98
2018-11-07T20:04:03.898Z,70.12
2018-11-07T20:08:09.060Z,70.14
2018-11-07T20:30:59.711Z,70.38
2018-11-07T20:35:06.656Z,70.26
2018-11-07T20:53:14.518Z,70.83
2018-11-07T20:57:35.962Z,70.75
2018-11-07T21:29:29.113Z,71.82
2018-11-07T21:33:42.532Z,71.53
